createdAt,value
2023-07-03T00:00:21.181Z,100673.94
2023-07-03T00:02:52.915Z,100673.72
2023-07-03T00:05:23.191Z,100674.53
2023-07-03T00:07:51.020Z,100674.72
2023-07-03T00:10:18.896Z,100674.97
2023-07-03T00:12:46.538Z,100667.16
2023-07-03T00:15:14.737Z,100671.28
2023-07-03T00:17:45.992Z,100666.75
2023-07-03T00:20:15.811Z,100670.03
2023-07-03T00:22:45.365Z,100665.94
2023-07-03T00:25:12.915Z,100673.72
2023-07-03T00:27:40.349Z,100682.75
2023-07-03T00:30:08.503Z,100673.72
2023-07-03T00:32:35.986Z,100671.91
2023-07-03T00:35:04.521Z,100672.50
2023-07-03T00:37:32.390Z,100663.06
2023-07-03T00:40:00.108Z,100664.53
2023-07-03T00:42:29.669Z,100662.66
2023-07-03T00:44:57.208Z,100666.16
2023-07-03T00:47:25.903Z,100666.97
2023-07-03T00:49:53.982Z,100662.28
2023-07-03T00:52:22.172Z,100672.31
2023-07-03T00:54:49.829Z,100658.78
2023-07-03T00:57:18.010Z,100660.00
2023-07-03T00:59:46.259Z,100655.28
2023-07-03T01:02:22.340Z,100654.06
2023-07-03T01:05:02.821Z,100647.09
2023-07-03T01:07:33.565Z,100646.28
2023-07-03T01:10:08.387Z,100650.59
2023-07-03T01:12:40.379Z,100652.41
2023-07-03T01:15:12.073Z,100651.41
2023-07-03T01:17:42.571Z,100652.41
2023-07-03T01:20:16.067Z,100647.31
2023-07-03T01:22:46.641Z,100646.50
2023-07-03T01:25:20.381Z,100645.91
2023-07-03T01:27:53.680Z,100657.56
2023-07-03T01:30:23.223Z,100652.63
2023-07-03T01:32:54.331Z,100653.25
2023-07-03T01:35:24.485Z,100648.94
2023-07-03T01:37:54.932Z,100654.06
2023-07-03T01:40:26.630Z,100653.47
2023-07-03T01:42:56.575Z,100656.13
2023-07-03T01:45:24.111Z,100645.47
2023-07-03T01:47:51.796Z,100654.47
2023-07-03T01:50:24.893Z,100657.34
2023-07-03T01:52:56.723Z,100653.25
2023-07-03T01:55:41.008Z,100652.22
2023-07-03T01:58:21.733Z,100655.09
2023-07-03T02:00:53.398Z,100648.72
2023-07-03T02:03:41.929Z,100647.31
2023-07-03T02:06:17.460Z,100641.13
2023-07-03T02:08:46.182Z,100645.22
2023-07-03T02:11:17.340Z,100648.69
2023-07-03T02:13:44.823Z,100645.22
2023-07-03T02:16:12.419Z,100642.97
2023-07-03T02:18:39.739Z,100644.38
2023-07-03T02:21:07.251Z,100643.16
2023-07-03T02:23:35.432Z,100640.09
2023-07-03T02:26:03.267Z,100631.88
2023-07-03T02:28:30.832Z,100629.44
2023-07-03T02:30:58.315Z,100634.34
2023-07-03T02:33:25.733Z,100631.03
2023-07-03T02:35:53.403Z,100631.88
2023-07-03T02:38:21.061Z,100635.56
2023-07-03T02:40:49.328Z,100641.53
2023-07-03T02:43:16.787Z,100633.91
2023-07-03T02:45:44.235Z,100634.16
2023-07-03T02:48:13.096Z,100633.31
2023-07-03T02:50:40.499Z,100626.78
2023-07-03T02:53:09.220Z,100628.81
2023-07-03T02:55:36.710Z,100619.00
2023-07-03T02:58:04.683Z,100625.75
2023-07-03T03:00:32.256Z,100626.75
2023-07-03T03:02:59.822Z,100619.78
2023-07-03T03:05:27.833Z,100622.41
2023-07-03T03:07:55.460Z,100623.66
2023-07-03T03:10:22.968Z,100623.25
2023-07-03T03:12:50.318Z,100628.34
2023-07-03T03:15:19.886Z,100625.91
2023-07-03T03:17:47.260Z,100621.38
2023-07-03T03:20:15.626Z,100628.13
2023-07-03T03:22:43.263Z,100629.75
2023-07-03T03:25:10.740Z,100614.84
2023-07-03T03:27:38.179Z,100625.66
2023-07-03T03:30:06.311Z,100617.88
2023-07-03T03:32:33.877Z,100611.31
2023-07-03T03:35:02.389Z,100613.75
2023-07-03T03:37:30.171Z,100610.69
2023-07-03T03:39:57.494Z,100615.38
2023-07-03T03:42:25.035Z,100614.53
2023-07-03T03:44:52.391Z,100611.06
2023-07-03T03:47:21.602Z,100615.34
2023-07-03T03:49:49.854Z,100614.69
2023-07-03T03:52:17.269Z,100616.53
2023-07-03T03:54:45.366Z,100620.03
2023-07-03T03:57:14.796Z,100616.13
2023-07-03T03:59:42.801Z,100616.72
2023-07-03T04:02:10.173Z,100623.09
2023-07-03T04:04:37.626Z,100612.00
2023-07-03T04:07:05.987Z,100615.06
2023-07-03T04:09:33.517Z,100620.16
2023-07-03T04:12:01.269Z,100618.25
2023-07-03T04:14:28.646Z,100620.09
2023-07-03T04:16:59.121Z,100611.09
2023-07-03T04:19:29.709Z,100616.84
2023-07-03T04:21:57.168Z,100618.31
2023-07-03T04:24:24.478Z,100624.47
2023-07-03T04:26:55.897Z,100626.72
2023-07-03T04:29:23.615Z,100623.44
2023-07-03T04:31:50.956Z,100620.78
2023-07-03T04:34:18.315Z,100619.16
2023-07-03T04:36:45.759Z,100625.63
2023-07-03T04:39:13.104Z,100621.81
2023-07-03T04:41:40.578Z,100620.97
2023-07-03T04:44:14.024Z,100616.84
2023-07-03T04:46:42.253Z,100611.53
2023-07-03T04:49:09.918Z,100609.69
2023-07-03T04:51:38.621Z,100609.28
2023-07-03T04:54:05.992Z,100612.13
2023-07-03T04:56:35.603Z,100609.94
2023-07-03T04:59:03.137Z,100611.19
2023-07-03T05:01:31.822Z,100604.25
2023-07-03T05:03:59.474Z,100605.91
2023-07-03T05:06:27.440Z,100609.38
2023-07-03T05:08:54.923Z,100609.81
2023-07-03T05:11:22.691Z,100611.88
2023-07-03T05:13:50.169Z,100625.59
2023-07-03T05:16:17.594Z,100623.94
2023-07-03T05:18:45.226Z,100622.50
2023-07-03T05:21:13.392Z,100623.72
2023-07-03T05:23:40.920Z,100630.91
2023-07-03T05:26:08.414Z,100628.47
2023-07-03T05:28:36.479Z,100631.13
2023-07-03T05:31:04.821Z,100623.97
2023-07-03T05:33:32.538Z,100624.78
2023-07-03T05:36:02.969Z,100629.25
2023-07-03T05:38:30.865Z,100622.53
2023-07-03T05:40:58.281Z,100630.13
2023-07-03T05:43:27.562Z,100628.50
2023-07-03T05:45:55.230Z,100632.78
2023-07-03T05:48:22.885Z,100630.94
2023-07-03T05:50:50.370Z,100628.72
2023-07-03T05:53:17.833Z,100630.78
2023-07-03T05:55:45.694Z,100630.78
2023-07-03T05:58:13.150Z,100633.44
2023-07-03T06:00:40.435Z,100627.53
2023-07-03T06:03:07.868Z,100625.50
2023-07-03T06:05:35.751Z,100631.66
2023-07-03T06:08:03.743Z,100636.16
2023-07-03T06:10:31.302Z,100631.47
2023-07-03T06:12:58.892Z,100639.84
2023-07-03T06:15:26.450Z,100635.78
2023-07-03T06:17:54.030Z,100647.69
2023-07-03T06:20:21.431Z,100638.03
2023-07-03T06:22:49.057Z,100642.38
2023-07-03T06:25:16.379Z,100636.44
2023-07-03T06:27:43.810Z,100636.19
2023-07-03T06:30:11.921Z,100646.50
2023-07-03T06:32:39.528Z,100644.84
2023-07-03T06:35:08.119Z,100644.03
2023-07-03T06:37:37.079Z,100643.59
2023-07-03T06:40:10.943Z,100653.47
2023-07-03T06:42:40.083Z,100654.06
2023-07-03T06:45:08.724Z,100657.94
2023-07-03T06:47:36.147Z,100645.06
2023-07-03T06:50:03.944Z,100657.13
2023-07-03T06:52:31.328Z,100660.44
2023-07-03T06:54:58.777Z,100654.28
2023-07-03T06:57:26.204Z,100656.94
2023-07-03T06:59:53.646Z,100661.03
2023-07-03T07:02:21.318Z,100665.31
2023-07-03T07:04:48.987Z,100663.91
2023-07-03T07:07:16.490Z,100665.31
2023-07-03T07:09:43.842Z,100667.59
2023-07-03T07:12:11.124Z,100660.81
2023-07-03T07:14:38.493Z,100667.38
2023-07-03T07:17:06.725Z,100666.16
2023-07-03T07:19:34.211Z,100668.63
2023-07-03T07:22:01.666Z,100666.56
2023-07-03T07:24:29.820Z,100665.53
2023-07-03T07:26:59.460Z,100666.16
2023-07-03T07:29:27.468Z,100671.28
2023-07-03T07:31:57.764Z,100670.25
2023-07-03T07:34:25.988Z,100669.44
2023-07-03T07:36:54.113Z,100664.72
2023-07-03T07:39:22.536Z,100649.97
2023-07-03T07:41:52.997Z,100662.84
2023-07-03T07:44:20.759Z,100668.09
2023-07-03T07:46:48.260Z,100667.91
2023-07-03T07:49:15.922Z,100665.44
2023-07-03T07:51:43.313Z,100667.88
2023-07-03T07:54:11.014Z,100667.53
2023-07-03T07:56:38.656Z,100665.81
2023-07-03T07:59:06.275Z,100662.75
2023-07-03T08:01:34.023Z,100668.47
2023-07-03T08:04:01.700Z,100666.31
2023-07-03T08:06:29.801Z,100661.59
2023-07-03T08:08:57.492Z,100670.84
2023-07-03T08:11:28.759Z,100664.56
2023-07-03T08:13:56.154Z,100667.78
2023-07-03T08:16:23.803Z,100657.72
2023-07-03T08:18:51.357Z,100660.31
2023-07-03T08:21:19.033Z,100666.94
2023-07-03T08:23:46.522Z,100668.22
2023-07-03T08:26:25.575Z,100677.03
2023-07-03T08:28:54.545Z,100665.56
2023-07-03T08:31:24.362Z,100674.97
2023-07-03T08:33:54.024Z,100666.22
2023-07-03T08:38:51.921Z,100670.22
2023-07-03T08:41:20.136Z,100673.88
2023-07-03T08:43:51.236Z,100677.38
2023-07-03T08:46:23.479Z,100677.88
2023-07-03T08:48:55.478Z,100682.03
2023-07-03T08:51:26.663Z,100684.34
2023-07-03T08:53:57.990Z,100677.91
2023-07-03T08:56:30.964Z,100682.88
2023-07-03T08:58:58.564Z,100677.34
2023-07-03T09:01:44.523Z,100669.81
2023-07-03T09:04:21.978Z,100673.50
2023-07-03T09:06:53.607Z,100676.84
2023-07-03T09:09:32.185Z,100665.16
2023-07-03T09:12:10.132Z,100674.63
2023-07-03T09:14:45.367Z,100666.25
2023-07-03T09:17:14.167Z,100669.94
2023-07-03T09:19:46.880Z,100661.56
2023-07-03T09:22:35.781Z,100654.78
2023-07-03T09:25:06.475Z,100655.78
2023-07-03T09:27:34.940Z,100664.34
2023-07-03T09:30:09.910Z,100662.28
2023-07-03T09:32:38.720Z,100665.72
2023-07-03T09:35:14.157Z,100667.72
2023-07-03T09:37:44.737Z,100652.97
2023-07-03T09:40:25.876Z,100661.81
2023-07-03T09:42:54.796Z,100650.28
2023-07-03T09:45:31.631Z,100650.81
2023-07-03T09:48:02.823Z,100650.50
2023-07-03T09:50:36.862Z,100643.44
2023-07-03T09:53:09.090Z,100642.25
2023-07-03T09:55:38.593Z,100639.91
2023-07-03T09:58:14.502Z,100638.06
2023-07-03T10:00:48.707Z,100637.91
2023-07-03T10:08:31.437Z,100657.69
2023-07-03T10:13:40.057Z,100645.31
2023-07-03T10:16:09.858Z,100656.88
2023-07-03T10:18:40.211Z,100662.88
2023-07-03T10:21:12.225Z,100658.78
2023-07-03T10:23:42.977Z,100659.22
2023-07-03T10:26:17.709Z,100658.22
2023-07-03T10:28:58.184Z,100657.47
2023-07-03T10:31:52.310Z,100662.41
2023-07-03T10:34:25.664Z,100669.00
2023-07-03T10:37:07.126Z,100663.94
2023-07-03T10:39:43.272Z,100670.09
2023-07-03T10:42:23.922Z,100659.00
2023-07-03T10:44:57.846Z,100661.66
2023-07-03T10:47:38.690Z,100659.41
2023-07-03T10:50:08.479Z,100654.66
2023-07-03T10:52:42.657Z,100658.97
2023-07-03T10:55:30.631Z,100643.97
2023-07-03T10:58:13.761Z,100649.69
2023-07-03T11:00:55.781Z,100643.28
2023-07-03T11:03:41.289Z,100632.91
2023-07-03T11:06:32.838Z,100629.25
2023-07-03T11:09:10.763Z,100637.78
2023-07-03T11:11:49.548Z,100623.09
2023-07-03T11:14:17.651Z,100622.03
2023-07-03T11:16:54.536Z,100620.59
2023-07-03T11:25:02.214Z,100605.69
2023-07-03T11:30:19.405Z,100616.78
2023-07-03T11:32:48.168Z,100596.47
2023-07-03T11:40:27.241Z,100583.91
2023-07-03T11:45:53.096Z,100569.59
2023-07-03T11:48:28.567Z,100567.44
2023-07-03T11:51:00.599Z,100566.91
2023-07-03T11:53:31.215Z,100569.59
2023-07-03T11:55:59.282Z,100566.72
2023-07-03T11:58:28.573Z,100567.88
2023-07-03T12:01:23.072Z,100561.25
2023-07-03T12:03:54.721Z,100560.00
2023-07-03T12:06:41.904Z,100556.78
2023-07-03T12:09:21.448Z,100548.88
2023-07-03T12:12:01.198Z,100536.19
2023-07-03T12:14:52.733Z,100541.78
2023-07-03T12:17:22.536Z,100529.59
2023-07-03T12:19:55.465Z,100534.72
2023-07-03T12:22:27.053Z,100535.47
2023-07-03T12:25:07.597Z,100548.19
2023-07-03T12:27:35.945Z,100542.47
2023-07-03T12:30:03.951Z,100537.84
2023-07-03T12:32:33.880Z,100528.31
2023-07-03T12:35:14.650Z,100522.94
2023-07-03T12:37:49.536Z,100544.00
2023-07-03T12:40:21.616Z,100534.84
2023-07-03T12:42:53.587Z,100530.75
2023-07-03T12:45:24.975Z,100530.66
2023-07-03T12:48:03.030Z,100532.28
2023-07-03T12:50:30.809Z,100524.91
2023-07-03T12:53:00.270Z,100522.94
2023-07-03T12:55:30.692Z,100518.16
2023-07-03T12:57:58.537Z,100513.28
2023-07-03T13:00:32.520Z,100514.81
2023-07-03T13:03:01.411Z,100514.69
2023-07-03T13:05:33.990Z,100525.38
2023-07-03T13:08:02.686Z,100523.03
2023-07-03T13:10:30.172Z,100526.63
2023-07-03T13:13:10.849Z,100516.59
2023-07-03T13:15:42.076Z,100507.75
2023-07-03T13:18:21.584Z,100521.28
2023-07-03T13:21:06.376Z,100506.03
2023-07-03T13:23:38.526Z,100520.25
2023-07-03T13:26:10.006Z,100532.66
2023-07-03T13:28:41.887Z,100539.34
2023-07-03T13:31:19.295Z,100549.13
2023-07-03T13:34:03.299Z,100547.44
2023-07-03T13:36:34.922Z,100552.53
2023-07-03T13:39:12.410Z,100562.41
2023-07-03T13:41:42.925Z,100572.59
2023-07-03T13:44:13.033Z,100564.28
2023-07-03T13:46:41.926Z,100552.41
2023-07-03T13:49:10.715Z,100560.66
2023-07-03T13:51:40.254Z,100548.78
2023-07-03T13:54:12.597Z,100544.53
2023-07-03T13:56:41.590Z,100545.44
2023-07-03T13:59:11.355Z,100548.59
2023-07-03T14:01:40.273Z,100548.28
2023-07-03T14:04:08.581Z,100547.56
2023-07-03T14:06:36.340Z,100552.75
2023-07-03T14:09:04.356Z,100569.66
2023-07-03T14:11:32.445Z,100572.19
2023-07-03T14:14:00.771Z,100557.19
2023-07-03T14:16:29.768Z,100562.16
2023-07-03T14:18:57.430Z,100541.47
2023-07-03T14:21:25.911Z,100529.19
2023-07-03T14:23:53.960Z,100516.03
2023-07-03T14:26:21.491Z,100517.69
2023-07-03T14:28:49.183Z,100521.38
2023-07-03T14:31:18.950Z,100519.78
2023-07-03T14:33:46.483Z,100517.25
2023-07-03T14:36:14.169Z,100518.81
2023-07-03T14:38:41.810Z,100500.28
2023-07-03T14:41:10.527Z,100511.56
2023-07-03T14:43:37.926Z,100503.69
2023-07-03T14:46:05.391Z,100503.03
2023-07-03T14:48:32.881Z,100499.53
2023-07-03T14:51:00.423Z,100498.88
2023-07-03T14:53:27.841Z,100488.94
2023-07-03T14:55:57.384Z,100490.69
2023-07-03T14:58:25.402Z,100492.94
2023-07-03T15:00:54.179Z,100485.50
2023-07-03T15:03:22.127Z,100477.88
2023-07-03T15:05:50.134Z,100477.34
2023-07-03T15:08:17.704Z,100484.69
2023-07-03T15:10:45.382Z,100477.41
2023-07-03T15:13:12.934Z,100475.91
2023-07-03T15:15:47.427Z,100480.59
2023-07-03T15:18:15.051Z,100479.44
2023-07-03T15:20:43.566Z,100489.69
2023-07-03T15:23:11.247Z,100482.03
2023-07-03T15:25:38.886Z,100484.84
2023-07-03T15:28:06.508Z,100485.44
2023-07-03T15:30:33.950Z,100482.38
2023-07-03T15:33:01.865Z,100497.38
2023-07-03T15:35:29.694Z,100482.50
2023-07-03T15:37:57.208Z,100493.47
2023-07-03T15:40:24.968Z,100494.19
2023-07-03T15:42:52.599Z,100493.16
2023-07-03T15:45:23.787Z,100487.47
2023-07-03T15:47:51.318Z,100485.44
2023-07-03T15:50:18.989Z,100487.63
2023-07-03T15:52:46.726Z,100477.28
2023-07-03T15:55:19.408Z,100490.72
2023-07-03T15:57:46.965Z,100486.19
2023-07-03T16:00:15.499Z,100487.72
2023-07-03T16:02:43.065Z,100477.22
2023-07-03T16:05:12.566Z,100486.06
2023-07-03T16:07:40.362Z,100483.41
2023-07-03T16:10:08.774Z,100480.72
2023-07-03T16:12:36.481Z,100473.50
2023-07-03T16:15:04.197Z,100483.97
2023-07-03T16:17:35.478Z,100479.44
2023-07-03T16:20:10.097Z,100483.41
2023-07-03T16:22:38.705Z,100473.41
2023-07-03T16:25:07.540Z,100474.34
2023-07-03T16:27:35.188Z,100473.56
2023-07-03T16:30:02.708Z,100475.16
2023-07-03T16:32:31.579Z,100464.25
2023-07-03T16:34:59.280Z,100466.72
2023-07-03T16:37:26.966Z,100449.97
2023-07-03T16:39:54.510Z,100460.06
2023-07-03T16:42:22.024Z,100454.50
2023-07-03T16:44:49.686Z,100448.34
2023-07-03T16:47:17.381Z,100453.59
2023-07-03T16:49:45.188Z,100454.88
2023-07-03T16:52:12.720Z,100460.50
2023-07-03T16:54:40.214Z,100466.44
2023-07-03T16:57:07.775Z,100470.72
2023-07-03T16:59:35.568Z,100475.03
2023-07-03T17:02:03.443Z,100480.38
2023-07-03T17:04:32.540Z,100486.34
2023-07-03T17:07:00.069Z,100484.91
2023-07-03T17:09:27.484Z,100486.09
2023-07-03T17:11:55.233Z,100494.94
2023-07-03T17:14:24.061Z,100485.03
2023-07-03T17:16:51.803Z,100490.72
2023-07-03T17:19:19.613Z,100491.19
2023-07-03T17:21:47.153Z,100495.09
2023-07-03T17:24:14.770Z,100507.31
2023-07-03T17:26:42.366Z,100510.22
2023-07-03T17:29:09.821Z,100508.81
2023-07-03T17:31:37.989Z,100504.16
2023-07-03T17:34:05.569Z,100511.00
2023-07-03T17:36:33.332Z,100506.69
2023-07-03T17:39:00.906Z,100503.63
2023-07-03T17:41:28.421Z,100501.34
2023-07-03T17:43:56.091Z,100499.25
2023-07-03T17:46:24.123Z,100496.44
2023-07-03T17:48:51.732Z,100500.75
2023-07-03T17:51:19.506Z,100503.19
2023-07-03T17:53:49.109Z,100500.31
2023-07-03T17:56:16.688Z,100505.06
2023-07-03T17:58:44.964Z,100498.28
2023-07-03T18:01:13.325Z,100498.66
2023-07-03T18:03:41.395Z,100506.22
2023-07-03T18:06:09.491Z,100506.59
2023-07-03T18:08:37.275Z,100503.69
2023-07-03T18:11:04.956Z,100505.31
2023-07-03T18:13:32.579Z,100503.56
2023-07-03T18:16:00.653Z,100507.81
2023-07-03T18:18:28.498Z,100501.28
2023-07-03T18:20:55.857Z,100516.72
2023-07-03T18:23:23.606Z,100518.09
2023-07-03T18:25:51.565Z,100522.72
2023-07-03T18:28:19.603Z,100523.38
2023-07-03T18:30:47.228Z,100523.16
2023-07-03T18:33:14.943Z,100527.47
2023-07-03T18:35:42.552Z,100528.50
2023-07-03T18:38:09.925Z,100531.38
2023-07-03T18:40:37.533Z,100544.59
2023-07-03T18:43:05.027Z,100531.53
2023-07-03T18:45:32.566Z,100538.22
2023-07-03T18:48:00.465Z,100523.88
2023-07-03T18:50:27.992Z,100530.56
2023-07-03T18:52:55.980Z,100520.75
2023-07-03T18:55:23.854Z,100536.56
2023-07-03T18:57:51.673Z,100541.91
2023-07-03T19:00:19.313Z,100534.13
2023-07-03T19:02:46.879Z,100543.38
2023-07-03T19:05:15.030Z,100561.13
2023-07-03T19:07:42.793Z,100560.72
2023-07-03T19:10:18.281Z,100552.34
2023-07-03T19:12:47.505Z,100558.34
2023-07-03T19:15:15.314Z,100563.25
2023-07-03T19:17:42.857Z,100569.78
2023-07-03T19:20:11.972Z,100571.41
2023-07-03T19:22:39.381Z,100558.50
2023-07-03T19:25:07.285Z,100566.06
2023-07-03T19:27:34.601Z,100566.22
2023-07-03T19:30:01.962Z,100568.69
2023-07-03T19:32:29.279Z,100576.25
2023-07-03T19:34:56.890Z,100572.22
2023-07-03T19:37:25.870Z,100572.69
2023-07-03T19:39:53.284Z,100571.25
2023-07-03T19:42:20.450Z,100579.09
2023-07-03T19:44:47.657Z,100581.19
2023-07-03T19:47:15.108Z,100587.13
2023-07-03T19:49:42.518Z,100583.41
2023-07-03T19:52:12.262Z,100585.88
2023-07-03T19:54:40.294Z,100584.03
2023-07-03T19:57:07.899Z,100589.13
2023-07-03T19:59:45.604Z,100583.63
2023-07-03T20:02:13.143Z,100584.53
2023-07-03T20:04:41.699Z,100605.91
2023-07-03T20:07:08.910Z,100609.81
2023-07-03T20:09:38.412Z,100610.06
2023-07-03T20:12:15.904Z,100610.28
2023-07-03T20:14:45.369Z,100611.09
2023-07-03T20:17:20.704Z,100612.31
2023-07-03T20:19:47.848Z,100617.09
2023-07-03T20:22:15.278Z,100625.09
2023-07-03T20:24:42.172Z,100628.59
2023-07-03T20:27:18.268Z,100635.16
2023-07-03T20:29:50.870Z,100634.59
2023-07-03T20:32:18.281Z,100642.81
2023-07-03T20:34:51.009Z,100643.06
2023-07-03T20:37:23.299Z,100653.50
2023-07-03T20:39:50.297Z,100645.72
2023-07-03T20:42:17.778Z,100655.56
2023-07-03T20:44:46.858Z,100655.78
2023-07-03T20:47:14.005Z,100647.97
2023-07-03T20:49:41.030Z,100660.72
2023-07-03T20:52:08.938Z,100659.94
2023-07-03T20:54:44.569Z,100665.91
2023-07-03T20:57:20.077Z,100673.09
2023-07-03T20:59:51.558Z,100665.53
2023-07-03T21:02:19.470Z,100670.44
2023-07-03T21:04:46.781Z,100664.09
2023-07-03T21:07:21.222Z,100669.22
2023-07-03T21:09:48.538Z,100665.53
2023-07-03T21:12:15.530Z,100661.66
2023-07-03T21:14:42.570Z,100672.34
2023-07-03T21:17:09.768Z,100670.31
2023-07-03T21:19:36.747Z,100682.84
2023-07-03T21:22:04.048Z,100670.34
2023-07-03T21:24:31.048Z,100672.81
2023-07-03T21:26:58.071Z,100670.16
2023-07-03T21:29:25.165Z,100671.97
2023-07-03T21:31:52.213Z,100678.34
2023-07-03T21:34:19.251Z,100681.44
2023-07-03T21:36:46.157Z,100666.00
2023-07-03T21:39:14.203Z,100671.59
2023-07-03T21:41:43.431Z,100675.03
2023-07-03T21:44:13.729Z,100680.97
2023-07-03T21:46:42.239Z,100675.47
2023-07-03T21:49:15.613Z,100665.44
2023-07-03T21:51:43.160Z,100673.44
2023-07-03T21:54:10.189Z,100673.00
2023-07-03T21:56:39.890Z,100665.19
2023-07-03T21:59:07.061Z,100670.34
2023-07-03T22:01:39.131Z,100671.41
2023-07-03T22:04:07.867Z,100673.44
2023-07-03T22:06:35.127Z,100671.41
2023-07-03T22:09:02.464Z,100673.88
2023-07-03T22:11:30.683Z,100676.09
2023-07-03T22:13:58.200Z,100676.31
2023-07-03T22:16:25.678Z,100675.09
2023-07-03T22:18:52.808Z,100675.91
2023-07-03T22:21:20.105Z,100667.72
2023-07-03T22:23:51.826Z,100671.63
2023-07-03T22:26:19.391Z,100674.50
2023-07-03T22:28:47.168Z,100674.91
2023-07-03T22:31:14.570Z,100679.63
2023-07-03T22:33:42.467Z,100671.03
2023-07-03T22:36:11.190Z,100673.88
2023-07-03T22:38:38.453Z,100687.41
2023-07-03T22:41:05.618Z,100694.19
2023-07-03T22:43:32.698Z,100691.53
2023-07-03T22:46:07.434Z,100689.69
2023-07-03T22:48:36.148Z,100697.25
2023-07-03T22:51:03.506Z,100694.81
2023-07-03T22:53:30.849Z,100710.19
2023-07-03T22:55:57.812Z,100708.75
2023-07-03T22:58:24.869Z,100703.63
2023-07-03T23:00:51.750Z,100694.81
2023-07-03T23:03:18.726Z,100696.88
2023-07-03T23:05:47.232Z,100702.38
2023-07-03T23:08:18.250Z,100699.72
2023-07-03T23:10:53.731Z,100704.66
2023-07-03T23:13:23.149Z,100701.78
2023-07-03T23:16:07.566Z,100705.47
2023-07-03T23:18:36.431Z,100705.47
2023-07-03T23:21:08.235Z,100711.19
2023-07-03T23:23:35.387Z,100704.25
2023-07-03T23:26:07.790Z,100702.38
2023-07-03T23:28:36.552Z,100705.88
2023-07-03T23:31:07.743Z,100696.84
2023-07-03T23:33:36.158Z,100702.59
2023-07-03T23:36:12.035Z,100703.84
2023-07-03T23:38:40.783Z,100710.19
2023-07-03T23:41:09.761Z,100710.81
2023-07-03T23:43:38.303Z,100711.44
2023-07-03T23:46:10.355Z,100705.50
2023-07-03T23:48:39.173Z,100711.03
2023-07-03T23:51:08.930Z,100708.75
2023-07-03T23:53:39.857Z,100707.53
2023-07-03T23:56:15.639Z,100708.75
2023-07-03T23:58:44.632Z,100703.22
